createdAt,value
2022-11-05T00:02:23.863Z,87.34
2022-11-05T00:05:08.719Z,87.66
2022-11-05T00:08:00.215Z,87.83
2022-11-05T00:10:29.709Z,87.50
2022-11-05T00:13:30.815Z,87.57
2022-11-05T00:16:15.891Z,87.80
2022-11-05T00:18:42.299Z,87.63
2022-11-05T00:21:29.016Z,87.50
2022-11-05T00:24:14.128Z,87.40
2022-11-05T00:26:40.561Z,87.21
2022-11-05T00:29:07.383Z,87.49
2022-11-05T00:31:33.805Z,87.20
2022-11-05T00:34:00.198Z,87.18
2022-11-05T00:36:26.634Z,87.41
2022-11-05T00:38:53.048Z,87.74
2022-11-05T00:41:19.488Z,87.57
2022-11-05T00:44:04.731Z,87.65
2022-11-05T00:46:31.137Z,87.33
2022-11-05T00:49:15.880Z,87.87
2022-11-05T00:51:42.317Z,87.96
2022-11-05T00:54:08.727Z,88.28
2022-11-05T00:56:35.108Z,88.09
2022-11-05T00:59:01.554Z,87.74
2022-11-05T01:01:27.995Z,87.86
2022-11-05T01:03:54.610Z,87.63
2022-11-05T01:06:20.978Z,87.67
2022-11-05T01:08:47.530Z,87.28
2022-11-05T01:11:35.834Z,87.23
2022-11-05T01:14:08.060Z,87.07
2022-11-05T01:16:35.209Z,87.08
2022-11-05T01:19:02.354Z,86.97
2022-11-05T01:21:28.794Z,87.23
2022-11-05T01:23:55.264Z,87.04
2022-11-05T01:26:21.960Z,87.27
2022-11-05T01:28:55.981Z,87.26
2022-11-05T01:31:24.047Z,86.95
2022-11-05T01:33:50.976Z,86.98
2022-11-05T01:36:18.233Z,86.61
2022-11-05T01:38:45.077Z,86.83
2022-11-05T01:41:11.735Z,86.80
2022-11-05T01:43:54.480Z,86.75
2022-11-05T01:46:33.513Z,87.04
2022-11-05T01:49:10.734Z,87.09
2022-11-05T01:51:37.357Z,87.57
2022-11-05T01:54:09.714Z,87.42
2022-11-05T01:56:40.872Z,87.33
2022-11-05T01:59:10.968Z,86.99
2022-11-05T02:01:38.069Z,86.95
2022-11-05T02:04:08.588Z,86.79
2022-11-05T02:06:38.630Z,86.77
2022-11-05T02:09:22.243Z,86.83
2022-11-05T02:11:50.000Z,86.27
2022-11-05T02:14:16.522Z,86.22
2022-11-05T02:16:52.717Z,85.81
2022-11-05T02:19:21.756Z,85.53
2022-11-05T02:22:08.003Z,85.41
2022-11-05T02:24:49.350Z,85.63
2022-11-05T02:27:34.431Z,85.40
2022-11-05T02:30:04.395Z,85.27
2022-11-05T02:32:54.574Z,85.12
2022-11-05T02:35:35.231Z,84.71
2022-11-05T02:38:09.365Z,84.84
2022-11-05T02:41:04.969Z,84.25
2022-11-05T02:43:45.393Z,84.05
2022-11-05T02:46:39.669Z,84.21
2022-11-05T02:49:27.301Z,84.42
2022-11-05T02:51:58.456Z,84.52
2022-11-05T02:54:51.411Z,84.53
2022-11-05T02:57:20.653Z,84.38
2022-11-05T02:59:47.073Z,83.77
2022-11-05T03:02:13.705Z,83.82
2022-11-05T03:04:40.686Z,84.02
2022-11-05T03:07:19.286Z,83.99
2022-11-05T03:10:10.095Z,83.13
2022-11-05T03:12:56.964Z,83.25
2022-11-05T03:15:52.096Z,82.47
2022-11-05T03:18:24.901Z,83.33
2022-11-05T03:21:01.200Z,83.23
2022-11-05T03:23:39.516Z,83.32
2022-11-05T03:26:09.852Z,83.43
2022-11-05T03:28:40.895Z,83.54
2022-11-05T03:31:08.328Z,83.26
2022-11-05T03:33:38.912Z,83.48
2022-11-05T03:36:11.635Z,83.30
2022-11-05T03:38:43.502Z,83.70
2022-11-05T03:41:14.060Z,83.91
2022-11-05T03:43:46.841Z,83.41
2022-11-05T03:46:36.112Z,83.14
2022-11-05T03:49:06.356Z,83.32
2022-11-05T03:51:57.957Z,83.50
2022-11-05T03:54:24.674Z,83.32
2022-11-05T03:57:03.235Z,83.03
2022-11-05T03:59:32.315Z,83.12
2022-11-05T04:01:58.823Z,83.19
2022-11-05T04:04:25.461Z,82.72
2022-11-05T04:07:10.490Z,83.55
2022-11-05T04:09:55.515Z,83.30
2022-11-05T04:12:40.793Z,82.88
2022-11-05T04:15:07.949Z,83.41
2022-11-05T04:17:34.359Z,82.63
2022-11-05T04:20:19.485Z,83.48
2022-11-05T04:23:04.277Z,83.53
2022-11-05T04:25:30.681Z,82.95
2022-11-05T04:28:00.601Z,82.92
2022-11-05T04:30:27.443Z,83.03
2022-11-05T04:33:22.916Z,83.61
2022-11-05T04:35:49.380Z,83.02
2022-11-05T04:38:18.628Z,82.87
2022-11-05T04:40:46.579Z,83.29
2022-11-05T04:43:19.467Z,83.54
2022-11-05T04:45:46.362Z,83.34
2022-11-05T04:48:12.956Z,83.85
2022-11-05T04:50:39.571Z,83.60
2022-11-05T04:53:06.034Z,84.00
2022-11-05T04:55:32.404Z,83.94
2022-11-05T07:49:59.449Z,99.82
2022-11-05T07:52:25.882Z,87.58
2022-11-05T07:54:52.366Z,81.44
2022-11-05T07:57:18.790Z,76.83
2022-11-05T07:59:45.865Z,75.50
2022-11-05T08:02:12.779Z,74.20
2022-11-05T08:04:40.296Z,72.82
2022-11-05T08:07:06.694Z,70.75
2022-11-05T08:09:33.096Z,70.52
2022-11-05T08:12:02.806Z,69.69
2022-11-05T08:14:30.852Z,69.93
2022-11-05T08:16:58.540Z,70.34
2022-11-05T08:19:24.933Z,70.24
2022-11-05T08:21:51.428Z,70.02
2022-11-05T08:24:17.893Z,69.74
2022-11-05T08:26:44.368Z,70.12
2022-11-05T08:29:10.788Z,69.66
2022-11-05T08:31:37.211Z,69.84
2022-11-05T08:34:03.627Z,68.53
2022-11-05T08:36:30.582Z,68.16
2022-11-05T08:38:56.949Z,68.07
2022-11-05T08:41:24.289Z,66.86
2022-11-05T08:43:50.765Z,66.76
2022-11-05T08:46:17.169Z,66.34
2022-11-05T08:48:43.548Z,64.66
2022-11-05T08:51:09.957Z,65.77
2022-11-05T08:53:36.353Z,66.41
2022-11-05T08:56:02.859Z,66.66
2022-11-05T08:58:29.342Z,67.45
2022-11-05T09:00:58.956Z,68.40
2022-11-05T09:03:28.339Z,68.82
2022-11-05T09:05:54.740Z,69.25
2022-11-05T09:08:23.853Z,69.57
2022-11-05T09:10:50.319Z,70.17
2022-11-05T09:13:19.286Z,70.34
2022-11-05T09:15:50.422Z,70.09
2022-11-05T09:18:18.565Z,70.01
2022-11-05T09:20:45.152Z,70.11
2022-11-05T09:23:14.937Z,69.80
2022-11-05T09:25:41.641Z,69.30
2022-11-05T09:28:16.527Z,69.48
2022-11-05T09:30:49.404Z,69.53
2022-11-05T09:33:17.533Z,70.63
2022-11-05T09:35:44.456Z,67.48
2022-11-05T09:38:11.094Z,67.34
2022-11-05T09:40:45.551Z,67.60
2022-11-05T09:43:19.996Z,64.68
2022-11-05T09:45:51.593Z,65.49
2022-11-05T09:48:20.860Z,66.15
2022-11-05T09:50:47.654Z,65.47
2022-11-05T09:53:18.036Z,65.18
2022-11-05T09:55:56.391Z,64.80
2022-11-05T09:58:29.136Z,64.71
2022-11-05T10:00:57.284Z,64.93
2022-11-05T10:03:26.203Z,65.84
2022-11-05T10:05:54.469Z,66.50
2022-11-05T10:08:29.772Z,67.57
2022-11-05T10:11:05.498Z,67.28
2022-11-05T10:16:37.465Z,68.13
2022-11-05T10:19:16.710Z,68.60
2022-11-05T10:24:30.078Z,69.57
2022-11-05T10:26:57.541Z,69.68
2022-11-05T10:29:29.485Z,69.33
2022-11-05T10:32:01.425Z,69.80
2022-11-05T10:34:33.082Z,68.76
2022-11-05T10:36:59.767Z,69.47
2022-11-05T10:39:27.796Z,68.39
2022-11-05T10:42:01.856Z,67.23
2022-11-05T10:44:51.100Z,67.00
2022-11-05T10:47:42.361Z,67.33
2022-11-05T10:50:21.577Z,65.75
2022-11-05T10:53:39.057Z,64.37
2022-11-05T12:41:10.322Z,63.48
2022-11-05T12:43:54.970Z,64.28
2022-11-05T12:46:38.316Z,64.26
2022-11-05T12:49:42.948Z,64.47
2022-11-05T12:52:32.430Z,64.25
2022-11-05T12:55:17.398Z,64.69
2022-11-05T12:57:47.915Z,65.05
2022-11-05T13:00:17.409Z,65.85
2022-11-05T13:03:11.193Z,65.55
2022-11-05T13:05:43.315Z,66.12
2022-11-05T13:08:21.704Z,65.76
2022-11-05T13:10:55.514Z,66.20
2022-11-05T13:13:31.178Z,66.28
2022-11-05T13:16:04.836Z,66.58
2022-11-05T13:18:42.284Z,67.10
2022-11-05T13:21:10.018Z,66.54
2022-11-05T13:23:51.633Z,66.80
2022-11-05T13:26:26.543Z,66.10
2022-11-05T13:29:01.916Z,66.43
2022-11-05T13:31:34.690Z,67.00
2022-11-05T13:34:06.142Z,67.48
2022-11-05T13:37:06.438Z,66.99
2022-11-05T13:39:37.581Z,67.94
2022-11-05T13:42:29.179Z,68.18
2022-11-05T13:45:13.034Z,67.84
2022-11-05T13:47:53.760Z,68.03
2022-11-05T13:50:44.564Z,68.00
2022-11-05T13:53:45.552Z,67.25
2022-11-05T13:56:21.757Z,66.86
2022-11-05T13:59:18.633Z,65.94
2022-11-05T14:01:54.142Z,66.25
2022-11-05T14:04:29.887Z,66.02
2022-11-05T14:07:07.348Z,66.20
2022-11-05T14:09:35.892Z,66.27
2022-11-05T14:12:04.663Z,66.69
2022-11-05T14:14:43.018Z,66.88
2022-11-05T14:17:09.418Z,66.94
2022-11-05T14:19:49.641Z,67.19
2022-11-05T14:22:31.358Z,67.70
2022-11-05T14:24:58.962Z,68.10
2022-11-05T14:27:25.340Z,67.92
2022-11-05T14:29:51.734Z,68.03
2022-11-05T14:32:20.688Z,67.31
2022-11-05T14:35:15.707Z,66.91
2022-11-05T14:37:52.285Z,66.97
2022-11-05T14:40:21.483Z,66.81
2022-11-05T14:42:54.646Z,66.08
2022-11-05T14:45:41.571Z,66.70
2022-11-05T14:48:35.644Z,67.05
2022-11-05T14:51:02.296Z,66.61
2022-11-05T14:53:35.540Z,67.23
2022-11-05T14:56:06.760Z,67.31
2022-11-05T14:58:39.089Z,67.86
2022-11-05T15:01:14.756Z,66.98
2022-11-05T15:03:45.920Z,66.86
2022-11-05T15:06:39.198Z,65.77
2022-11-05T15:09:17.138Z,66.58
2022-11-05T15:11:56.860Z,67.32
2022-11-05T15:14:55.657Z,67.56
2022-11-05T15:17:31.830Z,67.42
2022-11-05T15:20:08.504Z,68.05
2022-11-05T15:22:40.741Z,68.26
2022-11-05T15:25:17.085Z,67.93
2022-11-05T15:27:54.833Z,67.01
2022-11-05T15:30:23.596Z,67.12
2022-11-05T15:32:51.107Z,67.50
2022-11-05T15:35:24.656Z,68.26
2022-11-05T15:37:55.946Z,68.10
2022-11-05T15:40:28.426Z,68.10
2022-11-05T15:43:25.961Z,68.55
2022-11-05T15:46:07.935Z,68.16
2022-11-05T15:48:35.712Z,68.65
2022-11-05T15:51:02.404Z,69.02
2022-11-05T15:54:08.249Z,69.45
2022-11-05T15:56:40.427Z,69.47
2022-11-05T15:59:19.357Z,69.91
2022-11-05T16:01:49.369Z,69.63
2022-11-05T16:04:22.036Z,70.34
2022-11-05T16:06:50.902Z,70.34
2022-11-05T16:09:27.725Z,70.92
2022-11-05T16:12:24.129Z,71.30
2022-11-05T16:15:06.207Z,71.58
2022-11-05T16:17:47.975Z,71.63
2022-11-05T16:20:20.346Z,72.52
2022-11-05T16:22:50.190Z,72.29
2022-11-05T16:25:31.938Z,72.71
2022-11-05T16:27:59.789Z,73.38
2022-11-05T16:30:26.725Z,72.71
2022-11-05T16:32:53.786Z,73.07
2022-11-05T16:35:23.141Z,72.99
2022-11-05T16:37:52.398Z,74.04
2022-11-05T16:40:21.533Z,74.22
2022-11-05T16:42:51.230Z,73.74
2022-11-05T16:45:20.607Z,73.93
2022-11-05T16:47:47.873Z,74.20
2022-11-05T16:50:26.340Z,73.84
2022-11-05T16:52:52.934Z,74.42
2022-11-05T16:55:20.082Z,74.35
2022-11-05T16:57:51.188Z,74.95
2022-11-05T17:00:20.001Z,76.18
2022-11-05T17:02:47.345Z,76.13
2022-11-05T17:05:29.036Z,75.42
2022-11-05T17:07:56.378Z,75.39
2022-11-05T17:10:25.005Z,75.63
2022-11-05T17:12:51.751Z,75.45
2022-11-05T17:15:22.438Z,75.45
2022-11-05T17:17:49.497Z,75.22
2022-11-05T17:20:25.230Z,75.21
2022-11-05T17:22:51.690Z,75.85
2022-11-05T17:25:18.079Z,76.26
2022-11-05T17:27:44.579Z,75.90
2022-11-05T17:30:12.219Z,75.87
2022-11-05T17:32:38.759Z,75.47
2022-11-05T17:35:07.883Z,76.37
2022-11-05T17:37:34.342Z,77.36
2022-11-05T17:40:01.406Z,76.78
2022-11-05T17:42:28.166Z,76.86
2022-11-05T17:44:55.073Z,76.72
2022-11-05T17:47:21.458Z,75.88
2022-11-05T17:49:48.001Z,76.16
2022-11-05T17:52:14.468Z,76.04
2022-11-05T17:54:40.923Z,76.17
2022-11-05T17:57:07.790Z,76.29
2022-11-05T17:59:34.277Z,76.87
2022-11-05T18:02:00.858Z,76.61
2022-11-05T18:04:27.388Z,75.63
2022-11-05T18:06:53.853Z,75.43
2022-11-05T18:09:20.260Z,75.35
2022-11-05T18:11:46.786Z,75.05
2022-11-05T18:14:13.277Z,75.53
2022-11-05T18:16:39.709Z,75.67
2022-11-05T18:19:06.289Z,75.26
2022-11-05T18:21:32.701Z,75.06
2022-11-05T18:24:02.521Z,74.93
2022-11-05T18:26:28.968Z,75.40
2022-11-05T18:28:55.403Z,75.04
2022-11-05T18:31:21.906Z,75.43
2022-11-05T18:33:50.143Z,74.76
2022-11-05T18:36:27.487Z,83.51
2022-11-05T18:38:54.414Z,86.24
2022-11-05T18:41:21.532Z,78.32
2022-11-05T18:43:48.007Z,74.65
2022-11-05T18:46:35.899Z,77.57
2022-11-05T18:49:01.758Z,77.61
2022-11-05T18:51:28.301Z,77.60
2022-11-05T18:53:55.816Z,78.16
2022-11-05T18:56:22.884Z,78.16
2022-11-05T18:58:49.836Z,78.03
2022-11-05T19:01:19.147Z,78.72
2022-11-05T19:03:46.711Z,78.01
2022-11-05T19:06:13.246Z,78.76
2022-11-05T19:08:39.962Z,77.24
2022-11-05T19:11:09.053Z,76.35
2022-11-05T19:13:35.551Z,76.42
2022-11-05T19:16:02.442Z,76.70
2022-11-05T19:18:28.922Z,76.86
2022-11-05T19:20:55.708Z,76.67
2022-11-05T19:23:22.146Z,77.11
2022-11-05T19:25:48.515Z,76.78
2022-11-05T19:28:15.470Z,77.36
2022-11-05T19:30:42.082Z,77.55
2022-11-05T19:33:08.538Z,78.60
2022-11-05T19:35:41.250Z,78.86
2022-11-05T19:38:07.996Z,77.60
2022-11-05T19:40:36.535Z,78.55
2022-11-05T19:43:02.970Z,78.57
2022-11-05T19:45:44.141Z,78.82
2022-11-05T19:48:16.158Z,78.35
2022-11-05T19:50:45.410Z,78.66
2022-11-05T19:53:11.830Z,77.53
2022-11-05T19:55:40.534Z,78.45
2022-11-05T19:58:08.028Z,79.46
2022-11-05T20:00:35.142Z,79.15
2022-11-05T20:03:01.888Z,78.45
2022-11-05T20:05:28.497Z,78.96
2022-11-05T20:07:55.672Z,77.92
2022-11-05T20:10:22.290Z,78.44
2022-11-05T20:12:49.008Z,78.95
2022-11-05T20:15:15.809Z,78.85
2022-11-05T20:17:42.225Z,79.17
2022-11-05T20:20:09.161Z,78.91
2022-11-05T20:22:35.539Z,78.95
2022-11-05T20:25:02.542Z,78.95
2022-11-05T20:27:29.107Z,79.16
2022-11-05T20:29:55.558Z,79.59
2022-11-05T20:32:21.990Z,78.98
2022-11-05T20:34:50.204Z,79.49
2022-11-05T20:37:16.573Z,78.94
2022-11-05T20:39:43.001Z,78.51
2022-11-05T20:42:09.382Z,78.73
2022-11-05T20:44:35.816Z,79.16
2022-11-05T20:47:02.261Z,79.14
2022-11-05T20:49:28.692Z,79.19
2022-11-05T20:51:55.538Z,78.80
2022-11-05T20:54:22.814Z,78.86
2022-11-05T20:56:49.540Z,79.31
2022-11-05T20:59:15.999Z,80.32
2022-11-05T21:01:42.554Z,80.23
2022-11-05T21:04:09.338Z,79.86
2022-11-05T21:06:35.932Z,80.36
2022-11-05T21:09:03.146Z,80.34
2022-11-05T21:11:49.577Z,79.71
2022-11-05T21:14:16.009Z,80.33
2022-11-05T21:16:42.418Z,80.86
2022-11-05T21:19:08.813Z,80.99
2022-11-05T21:21:40.087Z,80.86
2022-11-05T21:24:07.985Z,80.30
2022-11-05T21:26:34.425Z,80.22
2022-11-05T21:29:00.817Z,80.77
2022-11-05T21:31:27.239Z,79.88
2022-11-05T21:33:55.284Z,79.83
2022-11-05T21:36:21.944Z,79.81
2022-11-05T21:38:48.387Z,80.26
2022-11-05T21:41:14.794Z,80.05
2022-11-05T21:43:42.281Z,80.23
2022-11-05T21:46:11.959Z,80.23
2022-11-05T21:48:38.728Z,79.97
2022-11-05T21:51:24.405Z,79.69
2022-11-05T21:54:09.845Z,79.74
2022-11-05T21:56:55.251Z,79.89
2022-11-05T21:59:42.097Z,79.92
2022-11-05T22:02:11.204Z,79.83
2022-11-05T22:04:41.465Z,80.50
2022-11-05T22:07:10.432Z,80.23
2022-11-05T22:09:36.937Z,79.67
2022-11-05T22:12:03.902Z,80.35
2022-11-05T22:14:30.799Z,80.07
2022-11-05T22:16:58.360Z,79.99
2022-11-05T22:19:25.695Z,79.87
2022-11-05T22:21:52.132Z,79.69
2022-11-05T22:24:19.406Z,80.53
2022-11-05T22:26:46.330Z,80.75
2022-11-05T22:29:13.055Z,81.13
2022-11-05T22:31:40.097Z,81.17
2022-11-05T22:34:06.834Z,81.79
2022-11-05T22:36:34.530Z,80.62
2022-11-05T22:39:01.331Z,81.29
2022-11-05T22:41:28.405Z,79.97
2022-11-05T22:43:55.677Z,81.25
2022-11-05T22:46:23.771Z,81.31
2022-11-05T22:48:51.051Z,81.76
2022-11-05T22:51:29.515Z,82.78
2022-11-05T22:53:56.550Z,83.30
2022-11-05T22:56:25.482Z,83.94
2022-11-05T22:58:52.333Z,83.71
2022-11-05T23:01:20.457Z,84.17
2022-11-05T23:03:48.279Z,83.59
2022-11-05T23:06:38.747Z,84.23
2022-11-05T23:09:30.088Z,83.78
2022-11-05T23:11:57.437Z,82.70
2022-11-05T23:14:24.136Z,83.08
2022-11-05T23:17:09.047Z,82.17
2022-11-05T23:19:54.776Z,81.97
2022-11-05T23:22:43.384Z,81.50
2022-11-05T23:25:12.766Z,81.34
2022-11-05T23:27:40.755Z,81.79
2022-11-05T23:30:11.522Z,82.02
2022-11-05T23:32:38.483Z,81.45
2022-11-05T23:35:05.283Z,81.26
2022-11-05T23:37:50.908Z,80.71
2022-11-05T23:40:23.520Z,80.20
2022-11-05T23:43:08.859Z,81.56
2022-11-05T23:45:58.604Z,81.63
2022-11-05T23:48:30.764Z,81.20
2022-11-05T23:51:04.668Z,81.97
2022-11-05T23:53:34.065Z,81.91
2022-11-05T23:56:06.618Z,81.81
2022-11-05T23:58:33.832Z,81.84
